createdAt,value
2019-02-20T00:00:13.371Z,4.70
2019-02-20T00:03:36.886Z,4.80
2019-02-20T00:07:00.304Z,4.80
2019-02-20T00:10:23.823Z,4.80
2019-02-20T00:13:47.401Z,4.80
2019-02-20T00:17:10.870Z,4.80
2019-02-20T00:20:34.371Z,4.60
2019-02-20T00:23:57.920Z,4.50
2019-02-20T00:27:21.403Z,4.60
2019-02-20T00:30:45.493Z,4.50
2019-02-20T00:34:09.021Z,4.30
2019-02-20T00:37:32.646Z,4.20
2019-02-20T00:40:56.215Z,4.10
2019-02-20T00:44:24.704Z,4.00
2019-02-20T00:47:49.805Z,4.00
2019-02-20T00:51:14.871Z,4.00
2019-02-20T00:54:38.368Z,3.90
2019-02-20T00:58:03.911Z,3.80
2019-02-20T01:01:27.416Z,3.80
2019-02-20T01:04:51.067Z,3.90
2019-02-20T01:08:14.631Z,4.00
2019-02-20T01:11:38.175Z,4.10
2019-02-20T01:15:01.751Z,4.20
2019-02-20T01:18:25.479Z,4.20
2019-02-20T01:21:48.906Z,4.20
2019-02-20T01:25:12.571Z,4.00
2019-02-20T01:28:36.144Z,3.90
2019-02-20T01:32:00.626Z,3.80
2019-02-20T01:35:24.208Z,3.70
2019-02-20T01:38:47.748Z,3.60
2019-02-20T01:42:11.334Z,3.50
2019-02-20T01:45:34.971Z,3.50
2019-02-20T01:48:58.545Z,3.40
2019-02-20T01:52:22.113Z,3.30
2019-02-20T01:55:45.727Z,3.30
2019-02-20T01:59:09.319Z,3.30
2019-02-20T02:02:32.943Z,3.20
2019-02-20T02:05:56.504Z,3.30
2019-02-20T02:09:19.906Z,3.20
2019-02-20T02:12:43.368Z,3.20
2019-02-20T02:16:06.804Z,3.10
2019-02-20T02:19:30.393Z,3.20
2019-02-20T02:22:54.068Z,3.10
2019-02-20T02:26:17.643Z,3.30
2019-02-20T02:29:41.120Z,3.40
2019-02-20T02:33:04.748Z,3.40
2019-02-20T02:36:28.353Z,3.40
2019-02-20T02:39:52.103Z,3.40
2019-02-20T02:43:15.687Z,3.50
2019-02-20T02:46:39.256Z,3.60
2019-02-20T02:50:02.843Z,3.50
2019-02-20T02:53:30.736Z,3.40
2019-02-20T02:56:51.465Z,3.30
2019-02-20T03:00:15.111Z,3.30
2019-02-20T03:03:38.478Z,3.30
2019-02-20T03:07:01.991Z,3.40
2019-02-20T03:10:25.491Z,3.50
2019-02-20T03:13:49.170Z,3.60
2019-02-20T03:17:12.756Z,3.60
2019-02-20T03:20:36.177Z,3.70
2019-02-20T03:23:59.622Z,3.70
2019-02-20T03:27:23.083Z,3.80
2019-02-20T03:30:46.536Z,3.80
2019-02-20T03:34:10.112Z,3.90
2019-02-20T03:37:33.670Z,3.90
2019-02-20T03:40:57.185Z,4.00
2019-02-20T03:44:20.695Z,4.00
2019-02-20T03:47:44.411Z,4.00
2019-02-20T03:51:07.803Z,4.00
2019-02-20T03:54:31.334Z,4.00
2019-02-20T03:57:54.816Z,4.00
2019-02-20T04:01:18.434Z,4.10
2019-02-20T04:04:42.217Z,4.10
2019-02-20T04:08:05.843Z,4.10
2019-02-20T04:11:29.323Z,4.10
2019-02-20T04:14:52.793Z,4.10
2019-02-20T04:18:16.255Z,4.10
2019-02-20T04:21:39.699Z,4.00
2019-02-20T04:25:03.163Z,4.00
2019-02-20T04:28:26.878Z,3.90
2019-02-20T04:31:50.473Z,3.70
2019-02-20T04:35:13.878Z,3.60
2019-02-20T04:38:37.323Z,3.60
2019-02-20T04:42:00.736Z,3.60
2019-02-20T04:45:25.009Z,3.70
2019-02-20T04:48:48.542Z,3.60
2019-02-20T04:52:12.076Z,3.60
2019-02-20T04:55:35.589Z,3.50
2019-02-20T04:59:00.313Z,3.60
2019-02-20T05:02:23.803Z,3.60
2019-02-20T05:05:47.410Z,3.50
2019-02-20T05:09:10.903Z,3.30
2019-02-20T05:12:34.307Z,3.30
2019-02-20T05:15:57.767Z,3.20
2019-02-20T05:19:21.291Z,3.30
2019-02-20T05:22:44.822Z,3.30
2019-02-20T05:26:08.367Z,3.40
2019-02-20T05:29:31.876Z,3.50
2019-02-20T05:32:55.478Z,3.50
2019-02-20T05:36:19.252Z,3.50
2019-02-20T05:39:42.866Z,3.60
2019-02-20T05:43:06.542Z,3.70
2019-02-20T05:46:30.071Z,3.70
2019-02-20T05:49:53.621Z,3.70
2019-02-20T05:53:17.447Z,3.80
2019-02-20T05:56:42.389Z,3.80
2019-02-20T06:00:09.098Z,3.90
2019-02-20T06:03:32.659Z,3.80
2019-02-20T06:06:56.094Z,3.90
2019-02-20T06:10:19.651Z,3.90
2019-02-20T06:13:43.163Z,4.00
2019-02-20T06:17:06.617Z,4.00
2019-02-20T06:20:30.347Z,4.00
2019-02-20T06:23:53.888Z,4.10
2019-02-20T06:27:17.449Z,4.10
2019-02-20T06:30:40.926Z,4.10
2019-02-20T06:34:08.306Z,4.20
2019-02-20T06:37:31.998Z,4.20
2019-02-20T06:40:55.526Z,4.20
2019-02-20T06:44:19.027Z,4.20
2019-02-20T06:47:43.494Z,4.20
2019-02-20T06:51:07.026Z,4.20
2019-02-20T06:54:30.445Z,4.20
2019-02-20T06:57:54.028Z,4.20
2019-02-20T07:01:17.537Z,4.20
2019-02-20T07:04:42.699Z,4.20
2019-02-20T07:08:36.642Z,4.30
2019-02-20T07:12:15.961Z,4.40
2019-02-20T07:15:48.734Z,4.40
2019-02-20T07:19:30.624Z,4.50
2019-02-20T07:23:00.109Z,4.50
2019-02-20T07:26:52.596Z,4.60
2019-02-20T07:30:16.291Z,4.60
2019-02-20T07:33:39.801Z,4.70
2019-02-20T07:37:03.456Z,4.70
2019-02-20T07:40:27.091Z,4.80
2019-02-20T07:43:50.919Z,4.80
2019-02-20T07:47:14.557Z,4.90
2019-02-20T07:50:39.758Z,5.00
2019-02-20T07:54:03.486Z,5.10
2019-02-20T07:57:27.073Z,5.20
2019-02-20T08:00:50.594Z,5.20
2019-02-20T08:04:14.376Z,5.20
2019-02-20T08:07:37.876Z,5.30
2019-02-20T08:11:01.579Z,5.30
2019-02-20T08:14:25.275Z,5.40
2019-02-20T08:17:48.872Z,5.40
2019-02-20T08:21:12.524Z,5.40
2019-02-20T08:24:36.266Z,5.30
2019-02-20T08:27:59.923Z,5.20
2019-02-20T08:31:23.464Z,5.10
2019-02-20T08:34:47.066Z,5.20
2019-02-20T08:38:10.521Z,5.40
2019-02-20T08:41:34.018Z,5.50
2019-02-20T08:44:57.550Z,5.50
2019-02-20T08:48:20.963Z,5.60
2019-02-20T08:51:44.713Z,5.70
2019-02-20T08:55:09.984Z,5.90
2019-02-20T08:58:34.053Z,5.90
2019-02-20T09:01:57.671Z,5.90
2019-02-20T09:05:21.369Z,6.00
2019-02-20T09:08:44.880Z,7.30
2019-02-20T09:12:08.502Z,7.60
2019-02-20T09:15:32.435Z,7.80
2019-02-20T09:18:55.943Z,9.70
2019-02-20T09:22:20.438Z,10.40
2019-02-20T09:25:44.068Z,10.10
2019-02-20T09:29:07.663Z,11.00
2019-02-20T09:32:31.241Z,12.60
2019-02-20T09:35:55.288Z,13.70
2019-02-20T09:39:33.094Z,13.00
2019-02-20T09:42:57.487Z,12.20
2019-02-20T09:46:21.236Z,11.40
2019-02-20T09:49:44.820Z,10.40
2019-02-20T09:53:08.714Z,10.20
2019-02-20T09:56:33.218Z,9.70
2019-02-20T09:59:57.373Z,9.30
2019-02-20T10:03:21.246Z,10.80
2019-02-20T10:06:45.151Z,12.40
2019-02-20T10:10:10.419Z,14.90
2019-02-20T10:13:34.063Z,15.80
2019-02-20T10:16:57.589Z,16.60
2019-02-20T10:20:21.196Z,15.10
2019-02-20T10:23:45.338Z,14.10
2019-02-20T10:27:08.910Z,13.40
2019-02-20T10:30:32.609Z,12.40
2019-02-20T10:33:56.589Z,10.50
2019-02-20T10:37:20.214Z,9.00
2019-02-20T10:40:43.753Z,8.10
2019-02-20T10:44:07.454Z,7.60
2019-02-20T10:47:31.105Z,7.50
2019-02-20T10:50:54.826Z,8.00
2019-02-20T10:54:18.471Z,8.20
2019-02-20T10:57:42.359Z,10.60
2019-02-20T11:01:06.427Z,13.10
2019-02-20T11:04:30.880Z,14.00
2019-02-20T11:07:55.231Z,13.60
2019-02-20T11:11:18.576Z,13.10
2019-02-20T11:14:43.141Z,14.80
2019-02-20T11:18:06.767Z,12.70
2019-02-20T11:21:30.358Z,10.80
2019-02-20T11:24:53.936Z,11.20
2019-02-20T11:28:26.776Z,10.80
2019-02-20T11:31:45.495Z,11.80
2019-02-20T11:35:09.309Z,14.10
2019-02-20T11:38:32.816Z,12.20
2019-02-20T11:41:56.353Z,11.00
2019-02-20T11:45:19.922Z,10.30
2019-02-20T11:48:43.540Z,9.40
2019-02-20T11:52:07.021Z,9.50
2019-02-20T11:55:30.493Z,8.90
2019-02-20T11:58:54.159Z,8.60
2019-02-20T12:02:17.948Z,8.40
2019-02-20T12:05:43.242Z,8.30
2019-02-20T12:09:06.680Z,7.90
2019-02-20T12:12:30.340Z,7.70
2019-02-20T12:15:53.843Z,7.50
2019-02-20T12:19:17.346Z,7.30
2019-02-20T12:22:40.839Z,7.20
2019-02-20T12:26:04.554Z,7.20
2019-02-20T12:29:29.693Z,7.30
2019-02-20T12:32:53.263Z,7.40
2019-02-20T12:36:16.856Z,7.50
2019-02-20T12:39:40.498Z,7.40
2019-02-20T12:43:03.991Z,7.20
2019-02-20T12:46:27.864Z,7.00
2019-02-20T12:49:51.587Z,7.00
2019-02-20T12:53:15.278Z,7.10
2019-02-20T12:56:44.007Z,7.20
2019-02-20T13:00:10.774Z,7.20
2019-02-20T13:03:34.260Z,7.40
2019-02-20T13:06:59.356Z,7.70
2019-02-20T13:10:24.123Z,7.80
2019-02-20T13:13:49.072Z,7.60
2019-02-20T13:17:12.795Z,7.40
2019-02-20T13:20:36.491Z,7.30
2019-02-20T13:24:00.141Z,7.20
2019-02-20T13:27:23.768Z,7.20
2019-02-20T13:30:47.231Z,7.20
2019-02-20T13:34:10.687Z,7.10
2019-02-20T13:37:34.381Z,7.10
2019-02-20T13:40:58.038Z,7.10
2019-02-20T13:44:22.226Z,7.10
2019-02-20T13:47:45.922Z,7.30
2019-02-20T13:51:09.581Z,7.30
2019-02-20T13:54:33.267Z,7.30
2019-02-20T13:57:56.926Z,7.40
2019-02-20T14:01:20.518Z,7.30
2019-02-20T14:04:43.908Z,7.40
2019-02-20T14:08:07.663Z,7.20
2019-02-20T14:11:31.443Z,7.20
2019-02-20T14:14:54.917Z,7.20
2019-02-20T14:18:18.498Z,7.20
2019-02-20T14:21:42.045Z,7.10
2019-02-20T14:25:07.974Z,7.00
2019-02-20T14:28:31.636Z,6.90
2019-02-20T14:31:55.112Z,6.80
2019-02-20T14:35:19.137Z,6.70
2019-02-20T14:38:42.826Z,6.60
2019-02-20T14:42:06.992Z,6.70
2019-02-20T14:45:31.425Z,6.60
2019-02-20T14:48:55.278Z,6.70
2019-02-20T14:52:18.921Z,6.60
2019-02-20T14:55:42.479Z,6.60
2019-02-20T14:59:06.386Z,6.60
2019-02-20T15:02:30.672Z,6.60
2019-02-20T15:05:54.327Z,6.50
2019-02-20T15:09:17.944Z,6.40
2019-02-20T15:12:41.613Z,6.40
2019-02-20T15:16:05.129Z,6.30
2019-02-20T15:19:28.841Z,6.30
2019-02-20T15:22:52.586Z,6.30
2019-02-20T15:26:17.340Z,6.40
2019-02-20T15:29:41.103Z,6.40
2019-02-20T15:33:04.656Z,6.40
2019-02-20T15:36:28.506Z,6.40
2019-02-20T15:39:52.243Z,6.40
2019-02-20T15:43:15.827Z,6.30
2019-02-20T15:46:39.587Z,6.30
2019-02-20T15:50:03.788Z,6.30
2019-02-20T15:53:29.216Z,6.30
2019-02-20T15:56:53.272Z,6.30
2019-02-20T16:00:19.232Z,6.20
2019-02-20T16:03:42.976Z,6.10
2019-02-20T16:07:06.564Z,6.10
2019-02-20T16:10:30.197Z,6.10
2019-02-20T16:13:53.851Z,6.10
2019-02-20T16:17:17.688Z,6.10
2019-02-20T16:20:41.685Z,6.10
2019-02-20T16:24:05.199Z,6.10
2019-02-20T16:27:31.412Z,6.10
2019-02-20T16:30:55.072Z,6.10
2019-02-20T16:34:18.748Z,6.10
2019-02-20T16:37:42.509Z,6.10
2019-02-20T16:41:06.163Z,6.10
2019-02-20T16:44:29.964Z,6.10
2019-02-20T16:47:55.143Z,6.10
2019-02-20T16:51:19.680Z,6.10
2019-02-20T16:54:43.363Z,6.10
2019-02-20T16:58:06.780Z,6.10
2019-02-20T17:01:30.939Z,6.10
2019-02-20T17:04:59.370Z,6.10
2019-02-20T17:08:20.179Z,5.90
2019-02-20T17:11:43.806Z,5.90
2019-02-20T17:15:10.266Z,6.00
2019-02-20T17:18:34.074Z,5.90
2019-02-20T17:21:57.827Z,6.00
2019-02-20T17:25:22.143Z,5.90
2019-02-20T17:28:46.019Z,5.90
2019-02-20T17:32:09.926Z,6.00
2019-02-20T17:35:33.806Z,6.00
2019-02-20T17:38:58.201Z,6.00
2019-02-20T17:42:22.392Z,6.00
2019-02-20T17:45:46.513Z,5.90
2019-02-20T17:49:10.623Z,6.00
2019-02-20T17:52:34.849Z,5.90
2019-02-20T17:55:58.789Z,5.90
2019-02-20T17:59:23.182Z,5.90
2019-02-20T18:02:47.323Z,5.90
2019-02-20T18:06:11.591Z,5.90
2019-02-20T18:09:35.880Z,5.80
2019-02-20T18:12:59.656Z,5.80
2019-02-20T18:16:23.616Z,5.80
2019-02-20T18:19:47.516Z,5.80
2019-02-20T18:23:11.432Z,5.80
2019-02-20T18:26:35.304Z,5.90
2019-02-20T18:29:59.178Z,5.80
2019-02-20T18:33:23.170Z,5.80
2019-02-20T18:36:47.065Z,5.70
2019-02-20T18:40:15.968Z,5.70
2019-02-20T18:43:39.766Z,5.70
2019-02-20T18:47:03.907Z,5.70
2019-02-20T18:50:28.002Z,5.70
2019-02-20T18:53:52.564Z,5.70
2019-02-20T18:57:17.097Z,5.70
2019-02-20T19:00:40.974Z,5.70
2019-02-20T19:04:07.400Z,5.70
2019-02-20T19:07:30.982Z,5.70
2019-02-20T19:10:59.997Z,5.70
2019-02-20T19:14:32.386Z,5.70
2019-02-20T19:18:14.169Z,5.70
2019-02-20T19:21:43.881Z,5.70
2019-02-20T19:25:22.899Z,5.70
2019-02-20T19:28:49.686Z,5.60
2019-02-20T19:32:28.428Z,5.70
2019-02-20T19:36:04.545Z,5.60
2019-02-20T19:39:34.006Z,5.60
2019-02-20T19:43:27.090Z,5.60
2019-02-20T19:47:07.029Z,5.60
2019-02-20T19:50:43.368Z,5.60
2019-02-20T19:54:29.653Z,5.60
2019-02-20T19:58:05.031Z,5.60
2019-02-20T20:01:54.312Z,5.60
2019-02-20T20:05:26.996Z,5.60
2019-02-20T20:08:59.660Z,5.60
2019-02-20T20:12:47.529Z,5.60
2019-02-20T20:16:14.331Z,5.60
2019-02-20T20:19:47.132Z,5.60
2019-02-20T20:23:37.224Z,5.50
2019-02-20T20:27:19.123Z,5.50
2019-02-20T20:30:51.554Z,5.50
2019-02-20T20:34:27.638Z,5.50
2019-02-20T20:37:54.383Z,5.40
2019-02-20T20:41:39.205Z,5.40
2019-02-20T20:45:21.131Z,5.40
2019-02-20T20:48:57.081Z,5.40
2019-02-20T20:52:42.293Z,5.40
2019-02-20T20:56:15.062Z,5.40
2019-02-20T20:59:43.742Z,5.50
2019-02-20T21:03:10.539Z,5.40
2019-02-20T21:06:49.337Z,5.40
2019-02-20T21:10:16.305Z,5.40
2019-02-20T21:14:01.268Z,5.40
2019-02-20T21:17:36.517Z,5.40
2019-02-20T21:21:12.580Z,5.40
2019-02-20T21:24:39.574Z,5.40
2019-02-20T21:28:30.482Z,5.40
2019-02-20T21:32:06.889Z,5.40
2019-02-20T21:35:50.671Z,5.40
2019-02-20T21:39:29.481Z,5.40
2019-02-20T21:43:05.305Z,5.40
2019-02-20T21:47:06.008Z,5.40
2019-02-20T21:50:41.914Z,5.40
2019-02-20T21:54:17.738Z,5.40
2019-02-20T21:57:49.973Z,5.40
2019-02-20T22:01:36.726Z,5.30
2019-02-20T22:05:22.965Z,5.30
2019-02-20T22:08:55.485Z,5.30
2019-02-20T22:12:22.481Z,5.30
2019-02-20T22:16:07.203Z,5.30
2019-02-20T22:19:51.726Z,5.30
2019-02-20T22:23:42.063Z,5.30
2019-02-20T22:27:11.813Z,5.30
2019-02-20T22:30:56.588Z,5.30
2019-02-20T22:34:32.506Z,5.30
2019-02-20T22:38:22.200Z,5.30
2019-02-20T22:42:13.448Z,5.30
2019-02-20T22:45:40.107Z,5.30
2019-02-20T22:49:15.831Z,5.20
2019-02-20T22:52:45.294Z,5.20
2019-02-20T22:56:24.124Z,5.20
2019-02-20T23:00:03.162Z,5.20
2019-02-20T23:03:55.586Z,5.20
2019-02-20T23:07:28.188Z,5.20
2019-02-20T23:11:13.144Z,5.10
2019-02-20T23:14:42.663Z,5.10
2019-02-20T23:18:06.519Z,5.10
2019-02-20T23:21:30.242Z,5.10
2019-02-20T23:24:54.097Z,5.10
2019-02-20T23:28:17.979Z,5.00
2019-02-20T23:31:41.923Z,5.00
2019-02-20T23:35:07.144Z,5.00
2019-02-20T23:38:30.906Z,5.00
2019-02-20T23:41:54.677Z,5.00
2019-02-20T23:45:18.463Z,5.00
2019-02-20T23:48:42.140Z,5.00
2019-02-20T23:52:05.907Z,4.90
2019-02-20T23:55:30.646Z,5.00
2019-02-20T23:58:54.605Z,5.00
